sensor_id;sensor_type;location;lat;lon;timestamp;temperature;humidity
2913;DHT22;1466;48.778;9.166;2023-05-10T00:01:07;16.80;99.90
2913;DHT22;1466;48.778;9.166;2023-05-10T00:03:33;16.90;99.90
2913;DHT22;1466;48.778;9.166;2023-05-10T00:05:58;16.70;99.90
2913;DHT22;1466;48.778;9.166;2023-05-10T00:08:24;16.60;99.90
2913;DHT22;1466;48.778;9.166;2023-05-10T00:10:50;16.50;99.90
2913;DHT22;1466;48.778;9.166;2023-05-10T00:13:15;16.40;99.90
2913;DHT22;1466;48.778;9.166;2023-05-10T00:15:41;16.40;99.90
2913;DHT22;1466;48.778;9.166;2023-05-10T00:18:06;16.50;99.90
2913;DHT22;1466;48.778;9.166;2023-05-10T00:20:32;16.40;99.90
2913;DHT22;1466;48.778;9.166;2023-05-10T00:22:58;16.40;99.90
2913;DHT22;1466;48.778;9.166;2023-05-10T00:25:23;16.40;99.90
2913;DHT22;1466;48.778;9.166;2023-05-10T00:27:49;16.50;99.90
2913;DHT22;1466;48.778;9.166;2023-05-10T00:30:15;16.50;99.90
2913;DHT22;1466;48.778;9.166;2023-05-10T00:32:40;16.40;99.90
2913;DHT22;1466;48.778;9.166;2023-05-10T00:35:06;16.30;99.90
2913;DHT22;1466;48.778;9.166;2023-05-10T00:37:32;16.30;99.90
2913;DHT22;1466;48.778;9.166;2023-05-10T00:39:58;16.30;99.90
2913;DHT22;1466;48.778;9.166;2023-05-10T00:42:24;16.30;99.90
2913;DHT22;1466;48.778;9.166;2023-05-10T00:44:49;16.30;99.90
2913;DHT22;1466;48.778;9.166;2023-05-10T00:47:16;16.30;99.90
2913;DHT22;1466;48.778;9.166;2023-05-10T00:49:42;16.20;99.90
2913;DHT22;1466;48.778;9.166;2023-05-10T00:52:09;16.20;99.90
2913;DHT22;1466;48.778;9.166;2023-05-10T00:54:34;16.20;99.90
2913;DHT22;1466;48.778;9.166;2023-05-10T00:57:00;16.20;99.90
2913;DHT22;1466;48.778;9.166;2023-05-10T00:59:26;16.20;99.90
2913;DHT22;1466;48.778;9.166;2023-05-10T01:01:52;16.20;99.90
2913;DHT22;1466;48.778;9.166;2023-05-10T01:04:18;16.20;99.90
2913;DHT22;1466;48.778;9.166;2023-05-10T01:06:45;16.20;99.90
2913;DHT22;1466;48.778;9.166;2023-05-10T01:09:11;16.20;99.90
2913;DHT22;1466;48.778;9.166;2023-05-10T01:11:38;16.20;99.90
2913;DHT22;1466;48.778;9.166;2023-05-10T01:14:05;16.10;99.90
2913;DHT22;1466;48.778;9.166;2023-05-10T01:16:34;16.10;99.90
2913;DHT22;1466;48.778;9.166;2023-05-10T01:19:01;16.10;99.90
2913;DHT22;1466;48.778;9.166;2023-05-10T01:38:18;16.20;99.90
2913;DHT22;1466;48.778;9.166;2023-05-10T01:40:50;16.20;99.90
2913;DHT22;1466;48.778;9.166;2023-05-10T01:43:22;16.20;99.90
2913;DHT22;1466;48.778;9.166;2023-05-10T01:45:59;16.10;99.90
2913;DHT22;1466;48.778;9.166;2023-05-10T01:48:30;16.10;99.90
2913;DHT22;1466;48.778;9.166;2023-05-10T01:50:57;16.10;99.90
2913;DHT22;1466;48.778;9.166;2023-05-10T01:53:23;16.20;99.90
2913;DHT22;1466;48.778;9.166;2023-05-10T01:55:51;16.30;99.90
2913;DHT22;1466;48.778;9.166;2023-05-10T01:58:27;16.30;99.90
2913;DHT22;1466;48.778;9.166;2023-05-10T02:00:54;16.30;99.90
2913;DHT22;1466;48.778;9.166;2023-05-10T02:03:23;16.20;99.90
2913;DHT22;1466;48.778;9.166;2023-05-10T02:05:49;16.20;99.90
2913;DHT22;1466;48.778;9.166;2023-05-10T02:08:17;16.10;99.90
2913;DHT22;1466;48.778;9.166;2023-05-10T02:10:45;16.10;99.90
2913;DHT22;1466;48.778;9.166;2023-05-10T02:13:12;16.10;99.90
2913;DHT22;1466;48.778;9.166;2023-05-10T02:15:39;16.10;99.90
2913;DHT22;1466;48.778;9.166;2023-05-10T02:18:05;16.10;99.90
2913;DHT22;1466;48.778;9.166;2023-05-10T02:20:32;16.20;99.90
2913;DHT22;1466;48.778;9.166;2023-05-10T02:22:59;16.30;99.90
2913;DHT22;1466;48.778;9.166;2023-05-10T02:25:27;16.30;99.90
2913;DHT22;1466;48.778;9.166;2023-05-10T02:27:55;16.40;99.90
2913;DHT22;1466;48.778;9.166;2023-05-10T02:30:21;16.50;99.90
2913;DHT22;1466;48.778;9.166;2023-05-10T02:32:49;16.40;99.90
2913;DHT22;1466;48.778;9.166;2023-05-10T02:35:15;16.40;99.90
2913;DHT22;1466;48.778;9.166;2023-05-10T02:37:41;16.40;99.90
2913;DHT22;1466;48.778;9.166;2023-05-10T02:40:10;16.40;99.90
2913;DHT22;1466;48.778;9.166;2023-05-10T02:42:37;16.40;99.90
2913;DHT22;1466;48.778;9.166;2023-05-10T02:45:10;16.40;99.90
2913;DHT22;1466;48.778;9.166;2023-05-10T02:47:36;16.40;99.90
2913;DHT22;1466;48.778;9.166;2023-05-10T02:50:02;16.40;99.90
2913;DHT22;1466;48.778;9.166;2023-05-10T02:52:30;16.40;99.90
2913;DHT22;1466;48.778;9.166;2023-05-10T02:55:04;16.40;99.90
2913;DHT22;1466;48.778;9.166;2023-05-10T02:57:34;16.40;99.90
2913;DHT22;1466;48.778;9.166;2023-05-10T03:00:01;16.30;99.90
2913;DHT22;1466;48.778;9.166;2023-05-10T03:02:28;16.30;99.90
2913;DHT22;1466;48.778;9.166;2023-05-10T03:04:55;16.30;99.90
2913;DHT22;1466;48.778;9.166;2023-05-10T03:07:21;16.30;99.90
2913;DHT22;1466;48.778;9.166;2023-05-10T03:09:48;16.30;99.90
2913;DHT22;1466;48.778;9.166;2023-05-10T03:20:20;16.20;99.90
2913;DHT22;1466;48.778;9.166;2023-05-10T03:22:51;16.20;99.90
2913;DHT22;1466;48.778;9.166;2023-05-10T03:25:19;16.10;99.90
2913;DHT22;1466;48.778;9.166;2023-05-10T03:27:46;16.20;99.90
2913;DHT22;1466;48.778;9.166;2023-05-10T03:30:13;16.10;99.90
2913;DHT22;1466;48.778;9.166;2023-05-10T03:32:39;16.10;99.90
2913;DHT22;1466;48.778;9.166;2023-05-10T03:35:11;16.00;99.90
2913;DHT22;1466;48.778;9.166;2023-05-10T03:37:38;15.90;99.90
2913;DHT22;1466;48.778;9.166;2023-05-10T03:40:04;16.00;99.90
2913;DHT22;1466;48.778;9.166;2023-05-10T03:42:30;15.90;99.90
2913;DHT22;1466;48.778;9.166;2023-05-10T03:44:56;15.80;99.90
2913;DHT22;1466;48.778;9.166;2023-05-10T03:47:22;15.80;99.90
2913;DHT22;1466;48.778;9.166;2023-05-10T03:49:47;15.80;99.90
2913;DHT22;1466;48.778;9.166;2023-05-10T03:52:13;15.90;99.90
2913;DHT22;1466;48.778;9.166;2023-05-10T03:54:39;15.80;99.90
2913;DHT22;1466;48.778;9.166;2023-05-10T03:57:04;15.80;99.90
2913;DHT22;1466;48.778;9.166;2023-05-10T03:59:30;15.80;99.90
2913;DHT22;1466;48.778;9.166;2023-05-10T04:01:56;15.90;99.90
2913;DHT22;1466;48.778;9.166;2023-05-10T04:04:22;15.90;99.90
2913;DHT22;1466;48.778;9.166;2023-05-10T04:06:48;16.00;99.90
2913;DHT22;1466;48.778;9.166;2023-05-10T04:09:14;16.00;99.90
2913;DHT22;1466;48.778;9.166;2023-05-10T04:11:39;16.00;99.90
2913;DHT22;1466;48.778;9.166;2023-05-10T04:14:05;16.00;99.90
2913;DHT22;1466;48.778;9.166;2023-05-10T04:16:30;15.90;99.90
2913;DHT22;1466;48.778;9.166;2023-05-10T04:18:56;16.00;99.90
2913;DHT22;1466;48.778;9.166;2023-05-10T04:21:22;16.00;99.90
2913;DHT22;1466;48.778;9.166;2023-05-10T04:23:48;16.00;99.90
2913;DHT22;1466;48.778;9.166;2023-05-10T04:26:14;16.00;99.90
2913;DHT22;1466;48.778;9.166;2023-05-10T04:28:39;16.00;99.90
2913;DHT22;1466;48.778;9.166;2023-05-10T04:31:06;16.10;99.90
2913;DHT22;1466;48.778;9.166;2023-05-10T04:33:32;16.20;99.90
2913;DHT22;1466;48.778;9.166;2023-05-10T04:35:58;16.20;99.90
2913;DHT22;1466;48.778;9.166;2023-05-10T04:38:24;16.20;99.90
2913;DHT22;1466;48.778;9.166;2023-05-10T04:40:50;16.10;99.90
2913;DHT22;1466;48.778;9.166;2023-05-10T04:43:15;16.10;99.90
2913;DHT22;1466;48.778;9.166;2023-05-10T04:45:41;16.10;99.90
2913;DHT22;1466;48.778;9.166;2023-05-10T04:48:06;16.20;99.90
2913;DHT22;1466;48.778;9.166;2023-05-10T04:50:32;16.30;99.90
2913;DHT22;1466;48.778;9.166;2023-05-10T04:52:58;16.20;99.90
2913;DHT22;1466;48.778;9.166;2023-05-10T04:55:24;16.20;99.90
2913;DHT22;1466;48.778;9.166;2023-05-10T04:57:50;16.10;99.90
2913;DHT22;1466;48.778;9.166;2023-05-10T05:00:16;16.10;99.90
2913;DHT22;1466;48.778;9.166;2023-05-10T05:02:45;16.10;99.90
2913;DHT22;1466;48.778;9.166;2023-05-10T05:05:11;16.10;99.90
2913;DHT22;1466;48.778;9.166;2023-05-10T05:07:37;16.20;99.90
2913;DHT22;1466;48.778;9.166;2023-05-10T05:10:07;16.20;99.90
2913;DHT22;1466;48.778;9.166;2023-05-10T05:12:33;16.20;99.90
2913;DHT22;1466;48.778;9.166;2023-05-10T05:14:58;16.30;99.90
2913;DHT22;1466;48.778;9.166;2023-05-10T05:17:24;16.30;99.90
2913;DHT22;1466;48.778;9.166;2023-05-10T05:19:50;16.40;99.90
2913;DHT22;1466;48.778;9.166;2023-05-10T05:22:16;16.50;99.90
2913;DHT22;1466;48.778;9.166;2023-05-10T05:24:45;16.50;99.90
2913;DHT22;1466;48.778;9.166;2023-05-10T05:27:10;16.60;99.90
2913;DHT22;1466;48.778;9.166;2023-05-10T05:29:36;16.60;99.90
2913;DHT22;1466;48.778;9.166;2023-05-10T05:32:02;16.50;99.90
2913;DHT22;1466;48.778;9.166;2023-05-10T05:34:27;16.50;99.90
2913;DHT22;1466;48.778;9.166;2023-05-10T05:36:53;16.50;99.90
2913;DHT22;1466;48.778;9.166;2023-05-10T05:39:19;16.60;99.90
2913;DHT22;1466;48.778;9.166;2023-05-10T05:41:45;16.70;99.90
2913;DHT22;1466;48.778;9.166;2023-05-10T05:44:11;16.80;99.90
2913;DHT22;1466;48.778;9.166;2023-05-10T05:46:36;16.80;99.90
2913;DHT22;1466;48.778;9.166;2023-05-10T05:49:02;16.80;99.90
2913;DHT22;1466;48.778;9.166;2023-05-10T05:51:28;16.90;99.90
2913;DHT22;1466;48.778;9.166;2023-05-10T05:53:54;16.90;99.90
2913;DHT22;1466;48.778;9.166;2023-05-10T05:56:19;17.00;99.90
2913;DHT22;1466;48.778;9.166;2023-05-10T05:58:50;17.00;99.90
2913;DHT22;1466;48.778;9.166;2023-05-10T06:01:15;16.90;99.90
2913;DHT22;1466;48.778;9.166;2023-05-10T06:03:41;16.90;99.90
2913;DHT22;1466;48.778;9.166;2023-05-10T06:06:07;16.90;99.90
2913;DHT22;1466;48.778;9.166;2023-05-10T06:08:32;16.90;99.90
2913;DHT22;1466;48.778;9.166;2023-05-10T06:10:59;17.00;99.90
2913;DHT22;1466;48.778;9.166;2023-05-10T06:13:25;17.00;99.90
2913;DHT22;1466;48.778;9.166;2023-05-10T06:16:00;17.00;99.90
2913;DHT22;1466;48.778;9.166;2023-05-10T06:18:26;17.00;99.90
2913;DHT22;1466;48.778;9.166;2023-05-10T06:20:52;17.00;99.90
2913;DHT22;1466;48.778;9.166;2023-05-10T06:23:17;17.00;99.90
2913;DHT22;1466;48.778;9.166;2023-05-10T06:25:43;17.10;99.90
2913;DHT22;1466;48.778;9.166;2023-05-10T06:28:09;17.20;99.90
2913;DHT22;1466;48.778;9.166;2023-05-10T06:30:36;17.10;99.90
2913;DHT22;1466;48.778;9.166;2023-05-10T06:33:02;17.00;99.90
2913;DHT22;1466;48.778;9.166;2023-05-10T06:35:28;17.00;99.90
2913;DHT22;1466;48.778;9.166;2023-05-10T06:37:54;17.00;99.90
2913;DHT22;1466;48.778;9.166;2023-05-10T06:40:20;17.00;99.90
2913;DHT22;1466;48.778;9.166;2023-05-10T06:42:47;16.90;99.90
2913;DHT22;1466;48.778;9.166;2023-05-10T06:45:13;16.80;99.90
2913;DHT22;1466;48.778;9.166;2023-05-10T06:47:40;16.70;99.90
2913;DHT22;1466;48.778;9.166;2023-05-10T06:50:09;16.70;99.90
2913;DHT22;1466;48.778;9.166;2023-05-10T06:52:35;16.70;99.90
2913;DHT22;1466;48.778;9.166;2023-05-10T06:55:01;16.80;99.90
2913;DHT22;1466;48.778;9.166;2023-05-10T06:57:27;16.90;99.90
2913;DHT22;1466;48.778;9.166;2023-05-10T06:59:52;16.90;99.90
2913;DHT22;1466;48.778;9.166;2023-05-10T07:02:18;16.90;99.90
2913;DHT22;1466;48.778;9.166;2023-05-10T07:04:44;16.80;99.90
2913;DHT22;1466;48.778;9.166;2023-05-10T07:07:09;16.90;99.90
2913;DHT22;1466;48.778;9.166;2023-05-10T07:09:35;17.00;99.90
2913;DHT22;1466;48.778;9.166;2023-05-10T07:12:01;17.10;99.90
2913;DHT22;1466;48.778;9.166;2023-05-10T07:14:27;17.30;99.90
2913;DHT22;1466;48.778;9.166;2023-05-10T07:16:53;17.40;99.90
2913;DHT22;1466;48.778;9.166;2023-05-10T07:19:18;17.40;99.90
2913;DHT22;1466;48.778;9.166;2023-05-10T07:21:45;17.60;99.90
2913;DHT22;1466;48.778;9.166;2023-05-10T07:24:10;17.70;99.90
2913;DHT22;1466;48.778;9.166;2023-05-10T07:26:36;17.80;99.90
2913;DHT22;1466;48.778;9.166;2023-05-10T07:29:02;17.90;99.90
2913;DHT22;1466;48.778;9.166;2023-05-10T07:31:28;18.00;99.90
2913;DHT22;1466;48.778;9.166;2023-05-10T07:33:53;18.10;99.90
2913;DHT22;1466;48.778;9.166;2023-05-10T07:36:19;18.10;99.90
2913;DHT22;1466;48.778;9.166;2023-05-10T07:38:44;18.10;99.90
2913;DHT22;1466;48.778;9.166;2023-05-10T07:41:11;18.00;99.90
2913;DHT22;1466;48.778;9.166;2023-05-10T07:43:37;18.10;99.90
2913;DHT22;1466;48.778;9.166;2023-05-10T07:46:02;18.10;99.90
2913;DHT22;1466;48.778;9.166;2023-05-10T07:48:28;18.20;99.90
2913;DHT22;1466;48.778;9.166;2023-05-10T07:50:54;18.30;99.90
2913;DHT22;1466;48.778;9.166;2023-05-10T07:53:19;18.30;99.90
2913;DHT22;1466;48.778;9.166;2023-05-10T07:55:50;18.40;99.90
2913;DHT22;1466;48.778;9.166;2023-05-10T07:58:16;18.30;99.90
2913;DHT22;1466;48.778;9.166;2023-05-10T08:00:41;18.30;99.90
2913;DHT22;1466;48.778;9.166;2023-05-10T08:03:07;18.30;99.90
2913;DHT22;1466;48.778;9.166;2023-05-10T08:05:32;18.20;99.90
2913;DHT22;1466;48.778;9.166;2023-05-10T08:07:58;18.20;99.90
2913;DHT22;1466;48.778;9.166;2023-05-10T08:10:24;18.10;99.90
2913;DHT22;1466;48.778;9.166;2023-05-10T08:12:50;18.00;99.90
2913;DHT22;1466;48.778;9.166;2023-05-10T08:15:16;17.90;99.90
2913;DHT22;1466;48.778;9.166;2023-05-10T08:17:42;18.00;99.90
2913;DHT22;1466;48.778;9.166;2023-05-10T08:20:08;18.00;99.90
2913;DHT22;1466;48.778;9.166;2023-05-10T08:22:34;18.00;99.90
2913;DHT22;1466;48.778;9.166;2023-05-10T08:24:59;18.00;99.90
2913;DHT22;1466;48.778;9.166;2023-05-10T08:27:25;18.10;99.90
2913;DHT22;1466;48.778;9.166;2023-05-10T08:29:51;18.10;99.90
2913;DHT22;1466;48.778;9.166;2023-05-10T08:32:17;18.00;99.90
2913;DHT22;1466;48.778;9.166;2023-05-10T08:34:43;18.00;99.90
2913;DHT22;1466;48.778;9.166;2023-05-10T08:37:08;17.90;99.90
2913;DHT22;1466;48.778;9.166;2023-05-10T08:39:35;17.90;99.90
2913;DHT22;1466;48.778;9.166;2023-05-10T08:42:02;18.00;99.90
2913;DHT22;1466;48.778;9.166;2023-05-10T08:44:34;17.90;99.90
2913;DHT22;1466;48.778;9.166;2023-05-10T08:47:04;17.90;99.90
2913;DHT22;1466;48.778;9.166;2023-05-10T08:49:31;17.90;99.90
2913;DHT22;1466;48.778;9.166;2023-05-10T08:51:57;17.90;99.90
2913;DHT22;1466;48.778;9.166;2023-05-10T08:54:25;18.00;99.90
2913;DHT22;1466;48.778;9.166;2023-05-10T08:56:50;18.20;99.90
2913;DHT22;1466;48.778;9.166;2023-05-10T08:59:17;18.30;99.90
2913;DHT22;1466;48.778;9.166;2023-05-10T09:01:44;18.50;99.90
2913;DHT22;1466;48.778;9.166;2023-05-10T09:04:11;18.60;99.90
2913;DHT22;1466;48.778;9.166;2023-05-10T09:06:37;18.80;99.90
2913;DHT22;1466;48.778;9.166;2023-05-10T09:09:03;18.80;99.90
2913;DHT22;1466;48.778;9.166;2023-05-10T09:11:29;18.90;99.90
2913;DHT22;1466;48.778;9.166;2023-05-10T09:13:55;18.90;99.90
2913;DHT22;1466;48.778;9.166;2023-05-10T09:16:22;18.90;99.90
2913;DHT22;1466;48.778;9.166;2023-05-10T09:18:48;19.00;99.90
2913;DHT22;1466;48.778;9.166;2023-05-10T09:21:14;19.00;99.90
2913;DHT22;1466;48.778;9.166;2023-05-10T09:23:43;18.70;99.90
2913;DHT22;1466;48.778;9.166;2023-05-10T09:26:09;18.60;99.90
2913;DHT22;1466;48.778;9.166;2023-05-10T09:28:50;18.60;99.90
2913;DHT22;1466;48.778;9.166;2023-05-10T09:31:16;18.50;99.90
2913;DHT22;1466;48.778;9.166;2023-05-10T09:33:45;18.50;99.90
2913;DHT22;1466;48.778;9.166;2023-05-10T09:36:11;18.50;99.90
2913;DHT22;1466;48.778;9.166;2023-05-10T09:38:48;18.60;99.90
2913;DHT22;1466;48.778;9.166;2023-05-10T09:41:33;18.70;99.90
2913;DHT22;1466;48.778;9.166;2023-05-10T09:43:58;18.80;99.90
2913;DHT22;1466;48.778;9.166;2023-05-10T09:46:24;18.90;99.90
2913;DHT22;1466;48.778;9.166;2023-05-10T09:48:50;18.90;99.90
2913;DHT22;1466;48.778;9.166;2023-05-10T09:51:23;19.00;99.90
2913;DHT22;1466;48.778;9.166;2023-05-10T09:54:12;19.20;99.90
2913;DHT22;1466;48.778;9.166;2023-05-10T09:56:38;19.40;99.90
2913;DHT22;1466;48.778;9.166;2023-05-10T09:59:06;19.50;99.90
2913;DHT22;1466;48.778;9.166;2023-05-10T10:01:32;19.50;99.90
2913;DHT22;1466;48.778;9.166;2023-05-10T10:03:58;19.60;99.90
2913;DHT22;1466;48.778;9.166;2023-05-10T10:06:24;19.50;99.90
2913;DHT22;1466;48.778;9.166;2023-05-10T10:08:51;19.40;99.90
2913;DHT22;1466;48.778;9.166;2023-05-10T10:11:16;19.10;99.90
2913;DHT22;1466;48.778;9.166;2023-05-10T10:13:42;18.80;99.90
2913;DHT22;1466;48.778;9.166;2023-05-10T10:16:09;18.50;99.90
2913;DHT22;1466;48.778;9.166;2023-05-10T10:18:36;18.30;99.90
2913;DHT22;1466;48.778;9.166;2023-05-10T10:21:05;18.20;99.90
2913;DHT22;1466;48.778;9.166;2023-05-10T10:23:32;18.20;99.90
2913;DHT22;1466;48.778;9.166;2023-05-10T10:25:57;18.30;99.90
2913;DHT22;1466;48.778;9.166;2023-05-10T10:31:28;18.70;99.90
2913;DHT22;1466;48.778;9.166;2023-05-10T10:34:07;18.80;99.90
2913;DHT22;1466;48.778;9.166;2023-05-10T10:36:54;18.90;99.90
2913;DHT22;1466;48.778;9.166;2023-05-10T10:39:20;19.00;99.90
2913;DHT22;1466;48.778;9.166;2023-05-10T10:41:50;19.00;99.90
2913;DHT22;1466;48.778;9.166;2023-05-10T10:52:20;18.70;99.90
2913;DHT22;1466;48.778;9.166;2023-05-10T11:13:31;18.40;98.40
2913;DHT22;1466;48.778;9.166;2023-05-10T11:15:58;18.40;98.20
2913;DHT22;1466;48.778;9.166;2023-05-10T11:18:29;18.20;98.00
2913;DHT22;1466;48.778;9.166;2023-05-10T11:20:58;18.10;98.20
2913;DHT22;1466;48.778;9.166;2023-05-10T11:23:33;17.90;98.50
2913;DHT22;1466;48.778;9.166;2023-05-10T11:26:12;17.80;98.70
2913;DHT22;1466;48.778;9.166;2023-05-10T11:28:42;17.90;98.90
2913;DHT22;1466;48.778;9.166;2023-05-10T11:31:08;18.00;99.10
2913;DHT22;1466;48.778;9.166;2023-05-10T11:34:06;18.20;99.20
2913;DHT22;1466;48.778;9.166;2023-05-10T11:36:33;18.50;98.90
2913;DHT22;1466;48.778;9.166;2023-05-10T11:39:00;18.80;98.20
2913;DHT22;1466;48.778;9.166;2023-05-10T11:41:27;18.70;97.60
2913;DHT22;1466;48.778;9.166;2023-05-10T11:43:53;18.70;97.60
2913;DHT22;1466;48.778;9.166;2023-05-10T11:46:21;18.70;97.50
2913;DHT22;1466;48.778;9.166;2023-05-10T11:48:58;18.70;97.80
2913;DHT22;1466;48.778;9.166;2023-05-10T11:51:25;18.70;97.80
2913;DHT22;1466;48.778;9.166;2023-05-10T11:53:54;18.80;97.90
2913;DHT22;1466;48.778;9.166;2023-05-10T11:56:19;18.80;97.90
2913;DHT22;1466;48.778;9.166;2023-05-10T11:58:51;18.90;97.60
2913;DHT22;1466;48.778;9.166;2023-05-10T12:01:17;18.70;97.70
2913;DHT22;1466;48.778;9.166;2023-05-10T12:03:42;18.50;97.80
2913;DHT22;1466;48.778;9.166;2023-05-10T12:06:08;18.50;97.70
2913;DHT22;1466;48.778;9.166;2023-05-10T12:08:34;18.30;97.60
2913;DHT22;1466;48.778;9.166;2023-05-10T12:11:07;18.10;97.70
2913;DHT22;1466;48.778;9.166;2023-05-10T12:13:40;18.20;97.70
2913;DHT22;1466;48.778;9.166;2023-05-10T12:16:16;17.90;97.80
2913;DHT22;1466;48.778;9.166;2023-05-10T12:18:42;18.00;98.20
2913;DHT22;1466;48.778;9.166;2023-05-10T12:21:12;18.00;98.20
2913;DHT22;1466;48.778;9.166;2023-05-10T12:23:38;18.10;98.40
2913;DHT22;1466;48.778;9.166;2023-05-10T12:26:05;18.20;98.40
2913;DHT22;1466;48.778;9.166;2023-05-10T12:28:31;18.40;98.20
2913;DHT22;1466;48.778;9.166;2023-05-10T12:30:59;18.50;97.90
2913;DHT22;1466;48.778;9.166;2023-05-10T12:33:25;18.60;97.50
2913;DHT22;1466;48.778;9.166;2023-05-10T12:35:53;18.70;97.40
2913;DHT22;1466;48.778;9.166;2023-05-10T12:41:02;18.90;95.00
2913;DHT22;1466;48.778;9.166;2023-05-10T12:43:28;18.90;94.70
2913;DHT22;1466;48.778;9.166;2023-05-10T12:45:54;18.70;94.20
2913;DHT22;1466;48.778;9.166;2023-05-10T12:48:20;18.70;94.40
2913;DHT22;1466;48.778;9.166;2023-05-10T12:50:46;18.70;94.40
2913;DHT22;1466;48.778;9.166;2023-05-10T12:53:14;18.70;94.80
2913;DHT22;1466;48.778;9.166;2023-05-10T12:55:41;18.80;94.90
2913;DHT22;1466;48.778;9.166;2023-05-10T12:58:07;18.80;94.90
2913;DHT22;1466;48.778;9.166;2023-05-10T13:00:32;18.80;95.10
2913;DHT22;1466;48.778;9.166;2023-05-10T13:02:58;18.80;95.20
2913;DHT22;1466;48.778;9.166;2023-05-10T13:05:24;18.70;95.40
2913;DHT22;1466;48.778;9.166;2023-05-10T13:07:49;18.50;95.80
2913;DHT22;1466;48.778;9.166;2023-05-10T13:10:15;18.40;96.20
2913;DHT22;1466;48.778;9.166;2023-05-10T13:12:41;18.40;96.40
2913;DHT22;1466;48.778;9.166;2023-05-10T13:15:07;18.40;96.50
2913;DHT22;1466;48.778;9.166;2023-05-10T13:17:32;18.40;96.60
2913;DHT22;1466;48.778;9.166;2023-05-10T13:19:58;18.50;96.30
2913;DHT22;1466;48.778;9.166;2023-05-10T13:22:24;18.40;96.10
2913;DHT22;1466;48.778;9.166;2023-05-10T13:24:49;18.40;96.00
2913;DHT22;1466;48.778;9.166;2023-05-10T13:27:15;18.50;96.00
2913;DHT22;1466;48.778;9.166;2023-05-10T13:29:40;18.60;96.00
2913;DHT22;1466;48.778;9.166;2023-05-10T13:32:06;18.70;95.90
2913;DHT22;1466;48.778;9.166;2023-05-10T13:34:32;18.80;95.60
2913;DHT22;1466;48.778;9.166;2023-05-10T13:36:57;19.00;95.40
2913;DHT22;1466;48.778;9.166;2023-05-10T13:39:23;19.00;95.10
2913;DHT22;1466;48.778;9.166;2023-05-10T13:41:49;19.20;95.00
2913;DHT22;1466;48.778;9.166;2023-05-10T13:44:14;19.20;94.90
2913;DHT22;1466;48.778;9.166;2023-05-10T13:46:41;19.20;94.60
2913;DHT22;1466;48.778;9.166;2023-05-10T13:49:09;19.20;94.40
2913;DHT22;1466;48.778;9.166;2023-05-10T13:51:34;19.20;94.40
2913;DHT22;1466;48.778;9.166;2023-05-10T13:54:04;19.20;94.30
2913;DHT22;1466;48.778;9.166;2023-05-10T13:56:30;19.20;94.30
2913;DHT22;1466;48.778;9.166;2023-05-10T13:58:59;19.20;94.20
2913;DHT22;1466;48.778;9.166;2023-05-10T14:01:24;19.20;94.30
2913;DHT22;1466;48.778;9.166;2023-05-10T14:03:50;19.20;94.00
2913;DHT22;1466;48.778;9.166;2023-05-10T14:06:16;19.10;93.80
2913;DHT22;1466;48.778;9.166;2023-05-10T14:08:41;19.10;93.50
2913;DHT22;1466;48.778;9.166;2023-05-10T14:11:07;19.10;92.60
2913;DHT22;1466;48.778;9.166;2023-05-10T14:13:32;19.00;92.20
2913;DHT22;1466;48.778;9.166;2023-05-10T14:15:58;19.10;92.00
2913;DHT22;1466;48.778;9.166;2023-05-10T14:18:28;19.10;91.80
2913;DHT22;1466;48.778;9.166;2023-05-10T14:20:54;19.20;91.90
2913;DHT22;1466;48.778;9.166;2023-05-10T14:23:21;19.30;91.70
2913;DHT22;1466;48.778;9.166;2023-05-10T14:25:50;19.40;91.30
2913;DHT22;1466;48.778;9.166;2023-05-10T14:28:16;19.40;91.50
2913;DHT22;1466;48.778;9.166;2023-05-10T14:30:43;19.40;91.40
2913;DHT22;1466;48.778;9.166;2023-05-10T14:33:09;19.50;91.20
2913;DHT22;1466;48.778;9.166;2023-05-10T14:35:35;19.40;91.10
2913;DHT22;1466;48.778;9.166;2023-05-10T14:38:02;19.40;91.20
2913;DHT22;1466;48.778;9.166;2023-05-10T14:40:29;19.30;91.00
2913;DHT22;1466;48.778;9.166;2023-05-10T14:42:55;19.20;91.30
2913;DHT22;1466;48.778;9.166;2023-05-10T14:45:22;19.10;91.70
2913;DHT22;1466;48.778;9.166;2023-05-10T14:47:48;19.20;91.80
2913;DHT22;1466;48.778;9.166;2023-05-10T14:50:14;19.30;91.70
2913;DHT22;1466;48.778;9.166;2023-05-10T14:52:40;19.30;91.40
2913;DHT22;1466;48.778;9.166;2023-05-10T14:55:06;19.30;91.30
2913;DHT22;1466;48.778;9.166;2023-05-10T14:57:31;19.20;91.40
2913;DHT22;1466;48.778;9.166;2023-05-10T14:59:57;19.20;91.60
2913;DHT22;1466;48.778;9.166;2023-05-10T15:02:23;19.10;91.30
2913;DHT22;1466;48.778;9.166;2023-05-10T15:04:48;19.20;91.80
2913;DHT22;1466;48.778;9.166;2023-05-10T15:07:14;19.10;91.70
2913;DHT22;1466;48.778;9.166;2023-05-10T15:09:41;19.00;91.70
2913;DHT22;1466;48.778;9.166;2023-05-10T15:12:07;18.90;91.80
2913;DHT22;1466;48.778;9.166;2023-05-10T15:14:32;18.90;92.00
2913;DHT22;1466;48.778;9.166;2023-05-10T15:16:58;19.00;92.10
2913;DHT22;1466;48.778;9.166;2023-05-10T15:19:24;19.10;92.20
2913;DHT22;1466;48.778;9.166;2023-05-10T15:21:50;19.20;92.20
2913;DHT22;1466;48.778;9.166;2023-05-10T15:24:15;19.00;92.20
2913;DHT22;1466;48.778;9.166;2023-05-10T15:26:41;18.90;92.40
2913;DHT22;1466;48.778;9.166;2023-05-10T15:29:07;19.00;92.50
2913;DHT22;1466;48.778;9.166;2023-05-10T15:31:33;19.00;92.40
2913;DHT22;1466;48.778;9.166;2023-05-10T15:34:01;19.00;92.60
2913;DHT22;1466;48.778;9.166;2023-05-10T15:36:26;19.20;92.80
2913;DHT22;1466;48.778;9.166;2023-05-10T15:38:53;19.20;92.20
2913;DHT22;1466;48.778;9.166;2023-05-10T15:41:19;19.20;92.40
2913;DHT22;1466;48.778;9.166;2023-05-10T15:43:46;19.30;92.40
2913;DHT22;1466;48.778;9.166;2023-05-10T15:46:11;19.40;92.20
2913;DHT22;1466;48.778;9.166;2023-05-10T15:48:37;19.50;91.90
2913;DHT22;1466;48.778;9.166;2023-05-10T15:51:04;19.60;91.70
2913;DHT22;1466;48.778;9.166;2023-05-10T15:53:30;19.60;91.70
2913;DHT22;1466;48.778;9.166;2023-05-10T15:55:55;19.60;90.70
2913;DHT22;1466;48.778;9.166;2023-05-10T15:58:21;19.40;90.20
2913;DHT22;1466;48.778;9.166;2023-05-10T16:00:48;19.40;90.40
2913;DHT22;1466;48.778;9.166;2023-05-10T16:03:13;19.30;90.00
2913;DHT22;1466;48.778;9.166;2023-05-10T16:05:39;19.20;89.80
2913;DHT22;1466;48.778;9.166;2023-05-10T16:08:05;19.10;89.90
2913;DHT22;1466;48.778;9.166;2023-05-10T16:10:31;19.10;90.10
2913;DHT22;1466;48.778;9.166;2023-05-10T16:12:57;19.20;90.20
2913;DHT22;1466;48.778;9.166;2023-05-10T16:15:23;19.20;90.20
2913;DHT22;1466;48.778;9.166;2023-05-10T16:17:49;19.20;90.20
2913;DHT22;1466;48.778;9.166;2023-05-10T16:20:15;19.10;89.70
2913;DHT22;1466;48.778;9.166;2023-05-10T16:22:40;19.10;90.00
2913;DHT22;1466;48.778;9.166;2023-05-10T16:25:07;19.20;90.10
2913;DHT22;1466;48.778;9.166;2023-05-10T16:27:32;19.20;89.90
2913;DHT22;1466;48.778;9.166;2023-05-10T16:29:58;19.10;89.70
2913;DHT22;1466;48.778;9.166;2023-05-10T16:32:24;19.00;89.30
2913;DHT22;1466;48.778;9.166;2023-05-10T16:34:50;19.00;89.90
2913;DHT22;1466;48.778;9.166;2023-05-10T16:37:17;18.90;89.90
2913;DHT22;1466;48.778;9.166;2023-05-10T16:39:43;18.90;90.00
2913;DHT22;1466;48.778;9.166;2023-05-10T16:42:08;18.80;90.00
2913;DHT22;1466;48.778;9.166;2023-05-10T16:44:34;18.80;90.10
2913;DHT22;1466;48.778;9.166;2023-05-10T16:47:00;18.80;90.20
2913;DHT22;1466;48.778;9.166;2023-05-10T16:49:27;18.80;90.20
2913;DHT22;1466;48.778;9.166;2023-05-10T16:51:53;18.80;90.20
2913;DHT22;1466;48.778;9.166;2023-05-10T16:54:18;18.80;90.20
2913;DHT22;1466;48.778;9.166;2023-05-10T16:56:45;18.70;90.30